Time;durP1;ratioP1;P1;durP2;ratioP2;P2;SDS_P1;SDS_P2;PMS_P1;PMS_P2;Temp;Humidity;BMP_temperature;BMP_pressure;BME280_temperature;BME280_humidity;BME280_pressure;Samples;Min_cycle;Max_cycle;Signal;HPM_P1;HPM_P2
2023/07/13 00:01:49;;;;;;;11.65;2.95;;;17.00;99.90;;;;;;5086248;28;20139;-71
2023/07/13 00:04:17;;;;;;;16.13;3.20;;;17.00;99.90;;;;;;5083886;28;20558;-70
2023/07/13 00:06:44;;;;;;;13.25;3.17;;;17.00;99.90;;;;;;5085880;28;20397;-72
2023/07/13 00:09:16;;;;;;;12.25;2.83;;;17.00;99.90;;;;;;5081050;28;20056;-71
2023/07/13 00:11:42;;;;;;;16.83;3.38;;;17.00;99.90;;;;;;5077626;28;20047;-71
2023/07/13 00:14:09;;;;;;;10.80;2.75;;;17.00;99.90;;;;;;5081439;28;20040;-71
2023/07/13 00:16:38;;;;;;;11.90;2.83;;;17.00;99.90;;;;;;5084512;28;20075;-72
2023/07/13 00:19:04;;;;;;;13.13;2.95;;;17.00;99.90;;;;;;5080796;28;20114;-71
2023/07/13 00:21:30;;;;;;;13.77;2.97;;;17.00;99.90;;;;;;5085575;28;20105;-72
2023/07/13 00:23:57;;;;;;;11.82;2.70;;;17.00;99.90;;;;;;5082273;28;20044;-71
2023/07/13 00:26:23;;;;;;;14.68;3.22;;;17.00;99.90;;;;;;5083815;28;20062;-71
2023/07/13 00:28:49;;;;;;;12.95;2.58;;;17.00;99.90;;;;;;5084914;28;20420;-71
2023/07/13 00:31:15;;;;;;;12.35;2.88;;;17.00;99.90;;;;;;5086844;28;20117;-70
2023/07/13 00:33:41;;;;;;;12.15;2.88;;;17.00;99.90;;;;;;5085576;28;20052;-71
2023/07/13 00:36:08;;;;;;;12.05;2.75;;;17.00;99.90;;;;;;5078620;28;20094;-71
2023/07/13 00:38:34;;;;;;;11.65;2.65;;;17.00;99.90;;;;;;5077734;28;20051;-70
2023/07/13 00:40:59;;;;;;;11.55;2.97;;;17.00;99.90;;;;;;5081750;28;20036;-71
2023/07/13 00:43:28;;;;;;;16.70;3.35;;;17.00;99.90;;;;;;5086745;28;20048;-71
2023/07/13 00:45:53;;;;;;;13.80;3.10;;;17.00;99.90;;;;;;5085529;28;20052;-72
2023/07/13 00:48:34;;;;;;;14.40;3.00;;;17.00;99.90;;;;;;5068615;28;20731;-72
2023/07/13 00:51:01;;;;;;;13.13;3.17;;;17.00;99.90;;;;;;5068811;28;20040;-72
2023/07/13 00:53:29;;;;;;;13.93;3.42;;;16.90;99.90;;;;;;5087319;28;20085;-72
2023/07/13 00:55:56;;;;;;;16.65;3.05;;;16.90;99.90;;;;;;5085066;28;20048;-72
2023/07/13 00:58:27;;;;;;;13.30;3.20;;;16.90;99.90;;;;;;5065074;28;20048;-71
2023/07/13 01:00:53;;;;;;;;;;;16.90;99.90;;;;;;5084751;28;20052;-72
2023/07/13 01:03:19;;;;;;;15.68;3.20;;;16.90;99.90;;;;;;5068467;28;19939;-72
2023/07/13 01:05:48;;;;;;;17.20;3.20;;;16.90;99.90;;;;;;5067154;28;20397;-71
2023/07/13 01:08:14;;;;;;;16.42;4.03;;;16.80;99.90;;;;;;5084518;28;20044;-71
2023/07/13 01:10:39;;;;;;;14.80;2.70;;;16.80;99.90;;;;;;5081975;28;20124;-71
2023/07/13 01:13:07;;;;;;;11.85;3.65;;;16.80;99.90;;;;;;5082979;28;20123;-70
2023/07/13 01:15:39;;;;;;;14.50;3.10;;;16.80;99.90;;;;;;5067866;28;20678;-71
2023/07/13 01:18:15;;;;;;;13.57;3.28;;;16.80;99.90;;;;;;5083634;28;20126;-71
2023/07/13 01:20:41;;;;;;;14.85;3.03;;;16.80;99.90;;;;;;5079348;28;20114;-71
2023/07/13 01:23:09;;;;;;;12.75;3.33;;;16.80;99.90;;;;;;5086054;28;20036;-70
2023/07/13 01:25:36;;;;;;;14.25;3.53;;;16.70;99.90;;;;;;5085407;28;20080;-71
2023/07/13 01:28:04;;;;;;;15.60;3.10;;;16.70;99.90;;;;;;5084705;28;20044;-71
2023/07/13 01:30:31;;;;;;;11.65;2.90;;;16.70;99.90;;;;;;5085087;28;20074;-72
2023/07/13 01:32:56;;;;;;;10.10;2.55;;;16.70;99.90;;;;;;5081030;28;20114;-71
2023/07/13 01:35:23;;;;;;;13.25;2.72;;;16.70;99.90;;;;;;5080701;28;20435;-71
2023/07/13 01:37:48;;;;;;;9.88;1.95;;;16.60;99.90;;;;;;5068638;28;20156;-72
2023/07/13 01:40:14;;;;;;;9.70;2.38;;;16.60;99.90;;;;;;5067709;28;20681;-71
2023/07/13 01:42:40;;;;;;;8.45;2.35;;;16.60;99.90;;;;;;5079482;28;20568;-71
2023/07/13 01:45:06;;;;;;;9.00;1.90;;;16.60;99.90;;;;;;5084619;28;20088;-71
2023/07/13 01:47:32;;;;;;;6.90;1.63;;;16.60;99.90;;;;;;5087190;28;20485;-70
2023/07/13 01:49:58;;;;;;;8.57;1.73;;;16.60;99.90;;;;;;5086056;28;20048;-71
2023/07/13 01:52:24;;;;;;;9.98;1.27;;;16.60;99.90;;;;;;5084865;28;20040;-71
2023/07/13 01:54:50;;;;;;;6.40;1.33;;;16.60;99.90;;;;;;5068104;28;20050;-71
2023/07/13 01:57:16;;;;;;;7.65;1.30;;;16.60;99.90;;;;;;5067308;28;20138;-71
2023/07/13 01:59:42;;;;;;;4.88;1.27;;;16.60;99.90;;;;;;5085314;28;20091;-72
2023/07/13 02:02:07;;;;;;;5.88;1.40;;;16.60;99.90;;;;;;5086751;28;20097;-72
2023/07/13 02:04:35;;;;;;;5.78;1.30;;;16.60;99.90;;;;;;5085295;28;20051;-72
2023/07/13 02:07:00;;;;;;;5.10;0.82;;;16.60;99.90;;;;;;5086830;28;20032;-72
2023/07/13 02:09:26;;;;;;;3.55;0.98;;;16.50;99.90;;;;;;5069033;28;20055;-72
2023/07/13 02:11:52;;;;;;;6.63;1.08;;;16.60;99.90;;;;;;5082920;28;20032;-72
2023/07/13 02:14:18;;;;;;;4.78;1.05;;;16.50;99.90;;;;;;5076695;28;20115;-72
2023/07/13 02:16:44;;;;;;;4.95;1.42;;;16.50;99.90;;;;;;5085567;28;20493;-71
2023/07/13 02:19:09;;;;;;;5.47;0.88;;;16.50;99.90;;;;;;5086690;28;20072;-71
2023/07/13 02:21:35;;;;;;;4.25;1.20;;;16.50;99.90;;;;;;5089525;28;20056;-71
2023/07/13 02:24:01;;;;;;;4.88;1.00;;;16.50;99.90;;;;;;5088319;28;20036;-71
2023/07/13 02:26:27;;;;;;;4.63;1.10;;;16.40;99.90;;;;;;5088386;28;20048;-71
2023/07/13 02:28:53;;;;;;;4.00;1.15;;;16.40;99.90;;;;;;5089391;28;20051;-73
2023/07/13 02:31:19;;;;;;;7.57;1.13;;;16.40;99.90;;;;;;5089016;28;20044;-73
2023/07/13 02:33:45;;;;;;;7.57;1.48;;;16.40;99.90;;;;;;5088088;28;20048;-72
2023/07/13 02:36:16;;;;;;;4.63;1.30;;;16.40;99.90;;;;;;5088281;28;20044;-71
2023/07/13 02:38:42;;;;;;;5.95;1.20;;;16.40;99.90;;;;;;5088150;28;20051;-71
2023/07/13 02:41:09;;;;;;;6.85;1.67;;;16.40;99.90;;;;;;5071529;28;20082;-71
2023/07/13 02:43:35;;;;;;;6.72;1.70;;;16.30;99.90;;;;;;5079582;28;20047;-72
2023/07/13 02:46:06;;;;;;;4.55;1.13;;;16.30;99.90;;;;;;5088931;28;20378;-71
2023/07/13 02:48:34;;;;;;;7.60;1.60;;;16.30;99.90;;;;;;5088170;28;20087;-71
2023/07/13 02:50:59;;;;;;;5.20;1.40;;;16.30;99.90;;;;;;5087900;28;20090;-71
2023/07/13 02:53:25;;;;;;;6.85;1.60;;;16.30;99.90;;;;;;5087527;28;20052;-71
2023/07/13 02:55:51;;;;;;;6.72;1.48;;;16.30;99.90;;;;;;5085652;28;20101;-71
2023/07/13 02:58:17;;;;;;;7.60;1.65;;;16.30;99.90;;;;;;5088892;28;20044;-71
2023/07/13 03:00:46;;;;;;;5.28;1.90;;;16.20;99.90;;;;;;5087752;28;20712;-71
2023/07/13 03:03:13;;;;;;;6.15;1.85;;;16.20;99.90;;;;;;5071425;28;20044;-71
2023/07/13 03:05:42;;;;;;;7.82;1.83;;;16.20;99.90;;;;;;5088246;28;20127;-71
2023/07/13 03:08:09;;;;;;;9.23;2.50;;;16.20;99.90;;;;;;5088161;28;20138;-71
2023/07/13 03:10:35;;;;;;;8.70;2.38;;;16.20;99.90;;;;;;5071348;28;20060;-72
2023/07/13 03:13:01;;;;;;;15.82;2.75;;;16.20;99.90;;;;;;5089785;28;20473;-72
2023/07/13 03:15:27;;;;;;;12.70;2.85;;;16.10;99.90;;;;;;5087910;28;20044;-71
2023/07/13 03:17:53;;;;;;;13.65;3.45;;;16.10;99.90;;;;;;5089386;28;20043;-71
2023/07/13 03:20:19;;;;;;;15.45;3.72;;;16.10;99.90;;;;;;5088068;28;20120;-71
2023/07/13 03:22:45;;;;;;;13.98;3.53;;;16.10;99.90;;;;;;5087293;28;20634;-72
2023/07/13 03:25:12;;;;;;;15.07;4.05;;;16.10;99.90;;;;;;5088400;28;20044;-72
2023/07/13 03:27:38;;;;;;;13.10;3.10;;;16.00;99.90;;;;;;5086019;28;20098;-72
2023/07/13 03:30:05;;;;;;;15.13;4.45;;;16.00;99.90;;;;;;5089096;28;20044;-69
2023/07/13 03:32:31;;;;;;;13.60;3.58;;;16.10;99.90;;;;;;5084986;28;20502;-70
2023/07/13 03:34:57;;;;;;;16.50;3.67;;;16.00;99.90;;;;;;5084248;28;20052;-72
2023/07/13 03:37:23;;;;;;;18.27;3.78;;;16.10;99.90;;;;;;5086996;28;20089;-71
2023/07/13 03:39:49;;;;;;;12.45;3.25;;;16.10;99.90;;;;;;5086689;28;20047;-73
2023/07/13 03:42:15;;;;;;;16.30;3.63;;;16.10;99.90;;;;;;5085749;28;20090;-74
2023/07/13 03:44:42;;;;;;;14.60;3.30;;;16.10;99.90;;;;;;5078216;28;20358;-73
2023/07/13 03:47:08;;;;;;;11.70;3.28;;;16.00;99.90;;;;;;5086944;28;20082;-71
2023/07/13 03:49:35;;;;;;;17.92;3.50;;;16.10;99.90;;;;;;5087542;28;20036;-74
2023/07/13 03:52:01;;;;;;;18.60;4.18;;;16.10;99.90;;;;;;5070076;28;20409;-74
2023/07/13 03:54:26;;;;;;;16.85;4.00;;;16.00;99.90;;;;;;5085948;28;20055;-74
2023/07/13 03:56:52;;;;;;;13.77;3.60;;;16.10;99.90;;;;;;5084542;28;20549;-73
2023/07/13 03:59:18;;;;;;;10.30;3.28;;;16.10;99.90;;;;;;5069201;28;20055;-72
2023/07/13 04:01:44;;;;;;;14.60;3.53;;;16.10;99.90;;;;;;5086811;28;20044;-73
2023/07/13 04:04:10;;;;;;;14.90;3.20;;;16.10;99.90;;;;;;5083275;28;20074;-73
2023/07/13 04:06:37;;;;;;;13.32;3.28;;;16.10;99.90;;;;;;5083011;28;20072;-73
2023/07/13 04:09:05;;;;;;;12.00;4.05;;;16.10;99.90;;;;;;5086847;28;20131;-73
2023/07/13 04:11:31;;;;;;;14.88;3.75;;;16.10;99.90;;;;;;5068243;28;20048;-74
2023/07/13 04:13:58;;;;;;;15.60;3.55;;;16.10;99.90;;;;;;5078827;28;20036;-74
2023/07/13 04:16:24;;;;;;;16.65;3.65;;;16.00;99.90;;;;;;5084540;28;20404;-73
2023/07/13 04:18:54;;;;;;;15.32;3.42;;;16.10;99.90;;;;;;5085097;28;20469;-73
2023/07/13 04:21:20;;;;;;;16.73;3.83;;;16.00;99.90;;;;;;5087150;28;20484;-73
2023/07/13 04:23:46;;;;;;;18.95;3.30;;;16.00;99.90;;;;;;5085352;28;20062;-73
2023/07/13 04:26:12;;;;;;;17.40;3.55;;;16.00;99.90;;;;;;5084512;28;20066;-74
2023/07/13 04:28:38;;;;;;;16.73;3.72;;;16.10;99.90;;;;;;5083321;28;20048;-74
2023/07/13 04:31:04;;;;;;;13.45;3.40;;;16.10;99.90;;;;;;5068152;28;20078;-73
2023/07/13 04:33:30;;;;;;;16.73;3.58;;;16.10;99.90;;;;;;5084119;28;20133;-73
2023/07/13 04:35:57;;;;;;;15.00;3.40;;;16.10;99.90;;;;;;5084389;28;20120;-75
2023/07/13 04:38:28;;;;;;;13.45;3.15;;;16.10;99.90;;;;;;5087989;28;20048;-71
2023/07/13 04:40:57;;;;;;;14.23;3.40;;;16.20;99.90;;;;;;5081269;28;20038;-72
2023/07/13 04:43:23;;;;;;;17.35;3.42;;;16.30;99.90;;;;;;5056860;28;20409;-73
2023/07/13 04:45:54;;;;;;;15.25;4.00;;;16.50;99.90;;;;;;5086474;28;20046;-74
2023/07/13 04:48:21;;;;;;;18.25;3.47;;;16.70;99.90;;;;;;5072384;28;20059;-74
2023/07/13 04:50:57;;;;;;;17.48;3.30;;;16.80;99.90;;;;;;5050118;28;20064;-74
2023/07/13 04:53:23;;;;;;;12.63;3.42;;;17.00;99.90;;;;;;5075250;28;20079;-75
2023/07/13 04:55:49;;;;;;;13.45;3.03;;;17.00;99.90;;;;;;5091397;28;20153;-73
2023/07/13 04:58:15;;;;;;;15.25;3.30;;;17.00;99.90;;;;;;5090538;28;20135;-74
2023/07/13 05:00:41;;;;;;;17.15;3.45;;;17.10;99.90;;;;;;5082029;28;20152;-72
2023/07/13 05:03:06;;;;;;;8.45;2.72;;;17.10;99.90;;;;;;5068870;28;20093;-72
2023/07/13 05:05:32;;;;;;;14.85;4.07;;;17.20;99.90;;;;;;5086664;28;20039;-74
2023/07/13 05:07:58;;;;;;;16.85;3.10;;;17.40;99.90;;;;;;5070742;28;20055;-72
2023/07/13 05:10:24;;;;;;;11.93;2.53;;;17.60;99.90;;;;;;5084560;28;20050;-73
2023/07/13 05:12:50;;;;;;;14.80;3.40;;;17.90;99.90;;;;;;5053443;28;20055;-72
2023/07/13 05:15:20;;;;;;;11.10;2.72;;;18.10;99.90;;;;;;5078404;28;20404;-71
2023/07/13 05:17:47;;;;;;;11.10;2.80;;;18.30;99.90;;;;;;5054660;28;20048;-70
2023/07/13 05:20:13;;;;;;;11.73;2.75;;;18.50;99.90;;;;;;5059601;28;20113;-71
2023/07/13 05:22:39;;;;;;;12.88;3.35;;;18.70;99.90;;;;;;5072533;28;20039;-72
2023/07/13 05:25:06;;;;;;;10.38;2.90;;;18.90;99.90;;;;;;5056934;28;20052;-71
2023/07/13 05:27:33;;;;;;;12.40;2.60;;;19.00;99.90;;;;;;5069116;28;21810;-71
2023/07/13 05:29:59;;;;;;;11.18;3.15;;;19.20;99.90;;;;;;5083868;28;20032;-72
2023/07/13 05:32:25;;;;;;;12.85;2.38;;;19.20;99.90;;;;;;5073707;28;20379;-72
2023/07/13 05:34:50;;;;;;;12.77;2.80;;;19.10;99.90;;;;;;5053225;28;20059;-72
2023/07/13 05:37:16;;;;;;;10.35;2.80;;;19.00;99.90;;;;;;5071853;28;20064;-72
2023/07/13 05:39:42;;;;;;;15.48;2.92;;;18.80;99.90;;;;;;5081292;28;20052;-72
2023/07/13 05:42:08;;;;;;;16.73;2.75;;;18.70;99.90;;;;;;5074419;28;20032;-72
2023/07/13 05:44:33;;;;;;;10.50;3.17;;;18.60;99.90;;;;;;5072850;28;20081;-73
2023/07/13 05:46:59;;;;;;;9.93;2.42;;;18.50;99.90;;;;;;5066794;28;20048;-71
2023/07/13 05:49:25;;;;;;;14.57;2.97;;;18.40;99.90;;;;;;5079974;28;20146;-71
2023/07/13 05:51:51;;;;;;;15.77;3.35;;;18.30;99.90;;;;;;5085945;28;20051;-71
2023/07/13 05:54:17;;;;;;;10.98;2.72;;;18.30;99.90;;;;;;5086261;28;20048;-71
2023/07/13 05:56:42;;;;;;;15.05;2.67;;;18.20;99.90;;;;;;5090628;28;20040;-70
2023/07/13 05:59:08;;;;;;;12.45;2.70;;;18.20;99.90;;;;;;5070387;28;20075;-71
2023/07/13 06:01:34;;;;;;;11.55;2.60;;;18.20;99.90;;;;;;5084428;28;20055;-72
2023/07/13 06:04:00;;;;;;;10.05;2.53;;;18.20;99.90;;;;;;5081068;28;20744;-72
2023/07/13 06:06:26;;;;;;;10.82;2.65;;;18.20;99.90;;;;;;5084018;28;20055;-71
2023/07/13 06:08:52;;;;;;;9.38;2.50;;;18.30;99.90;;;;;;5081559;28;20060;-72
2023/07/13 06:11:21;;;;;;;8.70;2.42;;;18.30;99.90;;;;;;5096807;28;20083;-71
2023/07/13 06:13:47;;;;;;;10.90;2.85;;;18.30;99.90;;;;;;5090698;28;20610;-71
2023/07/13 06:16:13;;;;;;;9.75;2.40;;;18.30;99.90;;;;;;5087964;28;20052;-72
2023/07/13 06:18:40;;;;;;;11.15;3.25;;;18.40;99.90;;;;;;5082403;28;20501;-72
2023/07/13 06:21:12;;;;;;;10.40;2.35;;;18.40;99.90;;;;;;5089128;28;20048;-73
2023/07/13 06:23:38;;;;;;;12.98;2.50;;;18.50;99.90;;;;;;5091068;28;20036;-72
2023/07/13 06:26:05;;;;;;;10.93;2.20;;;18.60;99.90;;;;;;5084049;28;20606;-72
2023/07/13 06:28:31;;;;;;;13.43;2.85;;;18.60;99.90;;;;;;5076994;28;20070;-72
2023/07/13 06:30:58;;;;;;;11.18;2.55;;;18.60;99.90;;;;;;5092100;28;20036;-70
2023/07/13 06:33:24;;;;;;;12.35;2.70;;;18.60;99.90;;;;;;5064351;28;20071;-71
2023/07/13 06:35:50;;;;;;;11.32;2.50;;;18.60;99.90;;;;;;5087138;28;20129;-71
2023/07/13 06:38:16;;;;;;;10.40;2.70;;;18.60;99.90;;;;;;5089063;28;20075;-71
2023/07/13 06:40:42;;;;;;;13.15;2.58;;;18.70;99.90;;;;;;5090428;28;20051;-71
2023/07/13 06:43:07;;;;;;;10.40;2.00;;;18.70;99.90;;;;;;5085599;28;20046;-72
2023/07/13 06:45:41;;;;;;;8.93;2.13;;;18.80;99.90;;;;;;5088249;28;20127;-72
2023/07/13 06:48:07;;;;;;;11.55;2.35;;;18.80;99.90;;;;;;5078769;28;20535;-72
2023/07/13 06:50:33;;;;;;;11.85;2.50;;;18.80;99.90;;;;;;5074734;28;20151;-72
2023/07/13 06:53:00;;;;;;;12.20;2.22;;;18.80;99.90;;;;;;5090987;28;20583;-72
2023/07/13 06:55:26;;;;;;;11.75;2.47;;;18.90;99.90;;;;;;5073693;28;20134;-72
2023/07/13 06:57:52;;;;;;;13.13;2.35;;;18.90;99.90;;;;;;5087857;28;20119;-74
2023/07/13 07:00:18;;;;;;;15.63;3.28;;;19.00;99.90;;;;;;5083123;28;20115;-72
2023/07/13 07:02:44;;;;;;;11.18;2.20;;;19.00;99.90;;;;;;5069271;28;20809;-73
2023/07/13 07:05:09;;;;;;;9.80;1.95;;;19.00;99.90;;;;;;5085979;28;20141;-73
2023/07/13 07:07:35;;;;;;;10.90;1.92;;;19.00;99.90;;;;;;5081628;28;20408;-74
2023/07/13 07:10:01;;;;;;;12.18;2.10;;;18.90;99.90;;;;;;5083946;28;20047;-74
2023/07/13 07:12:27;;;;;;;7.40;1.70;;;18.90;99.90;;;;;;5083028;28;20048;-74
2023/07/13 07:14:53;;;;;;;9.73;1.92;;;18.80;99.90;;;;;;5083831;28;20050;-74
2023/07/13 07:17:18;;;;;;;9.52;1.63;;;18.70;99.90;;;;;;5088219;28;20032;-74
2023/07/13 07:19:44;;;;;;;6.65;1.75;;;18.70;99.90;;;;;;5094687;28;20044;-74
2023/07/13 07:22:10;;;;;;;12.18;1.90;;;18.60;99.90;;;;;;5095178;28;20043;-74
2023/07/13 07:24:36;;;;;;;7.97;1.65;;;18.60;99.90;;;;;;5088155;28;20056;-74
2023/07/13 07:27:02;;;;;;;6.65;1.67;;;18.50;99.90;;;;;;5082793;28;20404;-75
2023/07/13 07:29:27;;;;;;;9.68;1.75;;;18.50;99.90;;;;;;5087323;28;20051;-74
2023/07/13 07:31:54;;;;;;;8.48;1.90;;;18.60;99.90;;;;;;5087394;28;20039;-74
2023/07/13 07:34:20;;;;;;;7.05;2.13;;;18.60;99.90;;;;;;5087170;28;20096;-74
2023/07/13 07:36:45;;;;;;;9.75;2.10;;;18.60;99.90;;;;;;5083378;28;20040;-75
2023/07/13 07:39:12;;;;;;;7.00;1.90;;;18.70;99.90;;;;;;5089881;28;20050;-75
2023/07/13 07:41:38;;;;;;;10.25;2.13;;;18.70;99.90;;;;;;5078523;28;20044;-74
2023/07/13 07:44:04;;;;;;;10.80;2.45;;;18.70;99.90;;;;;;5085045;28;20094;-72
2023/07/13 07:46:30;;;;;;;9.57;2.00;;;18.70;99.90;;;;;;5081008;28;20071;-72
2023/07/13 07:48:56;;;;;;;11.02;2.40;;;18.70;99.90;;;;;;5071977;28;20055;-70
2023/07/13 07:51:22;;;;;;;11.40;2.08;;;18.60;99.90;;;;;;5086177;28;20802;-70
2023/07/13 07:53:48;;;;;;;6.50;1.80;;;18.60;99.90;;;;;;5084139;28;20051;-70
2023/07/13 07:56:16;;;;;;;10.00;2.00;;;18.50;99.90;;;;;;5083362;28;20232;-70
2023/07/13 07:58:42;;;;;;;10.15;2.22;;;18.40;99.90;;;;;;5086154;28;20050;-71
2023/07/13 08:01:08;;;;;;;7.10;1.98;;;18.40;99.90;;;;;;5068284;28;20766;-70
2023/07/13 08:03:34;;;;;;;8.55;1.90;;;18.30;99.90;;;;;;5084457;28;20047;-71
2023/07/13 08:06:00;;;;;;;9.35;1.98;;;18.30;99.90;;;;;;5073244;28;20040;-71
2023/07/13 08:08:26;;;;;;;6.13;2.13;;;18.20;99.90;;;;;;5084510;28;20048;-71
2023/07/13 08:10:52;;;;;;;5.65;1.40;;;18.20;99.90;;;;;;5086041;28;20044;-71
2023/07/13 08:13:18;;;;;;;6.57;1.80;;;18.20;99.90;;;;;;5068184;28;20036;-71
2023/07/13 08:15:44;;;;;;;7.38;2.08;;;18.40;99.90;;;;;;5066141;28;20524;-71
2023/07/13 08:18:10;;;;;;;8.65;2.35;;;18.60;99.90;;;;;;5085676;28;20134;-71
2023/07/13 08:20:39;;;;;;;6.75;1.92;;;18.80;99.90;;;;;;5102059;28;20107;-71
2023/07/13 08:23:06;;;;;;;7.32;2.03;;;18.90;99.90;;;;;;5079646;28;20097;-71
2023/07/13 08:25:32;;;;;;;10.57;2.22;;;19.10;99.90;;;;;;5064494;28;20036;-71
2023/07/13 08:27:58;;;;;;;8.80;2.20;;;19.10;99.90;;;;;;5082030;28;20043;-71
2023/07/13 08:30:24;;;;;;;8.27;2.05;;;19.20;99.90;;;;;;5080108;28;20080;-72
2023/07/13 08:32:50;;;;;;;9.27;2.40;;;19.20;99.90;;;;;;5083872;28;20583;-71
2023/07/13 08:35:16;;;;;;;12.05;2.58;;;19.20;99.90;;;;;;5081083;28;20412;-72
2023/07/13 08:37:42;;;;;;;9.95;2.38;;;19.20;99.90;;;;;;5080878;28;20097;-70
2023/07/13 08:40:10;;;;;;;9.57;2.03;;;19.20;99.90;;;;;;5083372;28;20040;-71
2023/07/13 08:42:44;;;;;;;10.25;2.53;;;19.40;99.90;;;;;;5085098;28;20056;-72
2023/07/13 08:45:21;;;;;;;8.98;2.00;;;19.50;99.90;;;;;;5076376;28;20048;-71
2023/07/13 08:48:18;;;;;;;8.93;2.03;;;19.60;99.90;;;;;;5078162;28;20079;-72
2023/07/13 08:50:57;;;;;;;10.70;2.45;;;19.70;99.90;;;;;;5057665;28;20052;-71
2023/07/13 08:53:34;;;;;;;10.18;2.17;;;19.70;99.90;;;;;;5077198;28;20052;-72
2023/07/13 08:56:01;;;;;;;10.30;2.63;;;19.80;99.90;;;;;;5076069;28;20087;-72
2023/07/13 08:58:28;;;;;;;7.32;1.77;;;19.80;99.90;;;;;;5078325;28;20040;-70
2023/07/13 09:01:28;;;;;;;6.70;1.83;;;19.80;99.90;;;;;;5060549;28;20072;-71
2023/07/13 09:04:08;;;;;;;8.68;1.95;;;19.80;99.90;;;;;;5077104;28;20040;-72
2023/07/13 09:07:06;;;;;;;7.53;2.55;;;19.80;99.90;;;;;;5077940;28;20052;-72
2023/07/13 09:09:38;;;;;;;8.90;1.80;;;19.90;99.90;;;;;;5069547;28;20063;-72
2023/07/13 09:12:40;;;;;;;8.30;1.98;;;20.00;99.90;;;;;;5063080;28;20131;-72
2023/07/13 09:15:30;;;;;;;7.95;1.90;;;20.10;99.90;;;;;;5037184;28;20504;-73
2023/07/13 09:18:02;;;;;;;6.83;2.00;;;20.30;99.90;;;;;;5077077;28;20035;-73
2023/07/13 09:20:46;;;;;;;6.03;1.67;;;20.40;99.90;;;;;;5063149;28;20048;-72
2023/07/13 09:23:17;;;;;;;7.65;2.10;;;20.50;99.90;;;;;;5064207;28;20066;-73
2023/07/13 09:25:46;;;;;;;9.77;2.00;;;20.60;99.90;;;;;;5061453;28;20047;-74
2023/07/13 09:28:20;;;;;;;5.63;1.75;;;20.70;99.90;;;;;;5065255;28;20401;-73
2023/07/13 09:31:04;;;;;;;8.60;1.90;;;20.80;99.90;;;;;;5067824;28;20039;-72
2023/07/13 09:33:31;;;;;;;6.00;1.60;;;20.90;99.90;;;;;;5051238;28;20693;-71
2023/07/13 09:36:00;;;;;;;8.40;1.98;;;21.00;99.90;;;;;;5068169;28;20059;-72
2023/07/13 09:38:29;;;;;;;5.85;1.75;;;21.10;99.90;;;;;;5064981;28;20055;-73
2023/07/13 09:41:14;;;;;;;7.93;1.50;;;21.10;99.90;;;;;;5058209;28;20651;-74
2023/07/13 09:44:01;;;;;;;6.95;1.42;;;21.20;99.90;;;;;;5072040;28;20040;-72
2023/07/13 09:46:27;;;;;;;8.88;1.95;;;21.20;99.90;;;;;;5070999;28;20048;-72
2023/07/13 09:48:52;;;;;;;4.70;1.38;;;21.30;99.90;;;;;;5070675;28;20492;-72
2023/07/13 09:51:18;;;;;;;8.75;1.50;;;21.40;99.90;;;;;;5057827;28;20048;-71
2023/07/13 09:53:44;;;;;;;8.43;1.67;;;21.40;99.90;;;;;;5058529;28;20392;-71
2023/07/13 09:56:24;;;;;;;5.38;1.38;;;21.40;99.90;;;;;;5063390;28;20074;-73
2023/07/13 09:58:50;;;;;;;6.10;1.17;;;21.30;99.90;;;;;;5059947;28;20045;-72
2023/07/13 10:01:30;;;;;;;4.70;0.98;;;21.10;99.90;;;;;;5068192;28;20333;-72
2023/07/13 10:03:56;;;;;;;6.78;1.30;;;21.00;99.90;;;;;;5075687;28;20138;-72
2023/07/13 10:06:22;;;;;;;5.25;1.20;;;20.90;99.90;;;;;;5066622;28;20062;-72
2023/07/13 10:08:51;;;;;;;5.10;0.90;;;20.90;99.90;;;;;;5074537;28;20067;-72
2023/07/13 10:11:23;;;;;;;3.67;1.05;;;21.00;99.90;;;;;;5078802;28;20036;-72
2023/07/13 10:13:56;;;;;;;9.00;1.10;;;21.00;99.90;;;;;;5080437;28;20051;-73
2023/07/13 10:16:24;;;;;;;4.32;1.08;;;21.00;99.90;;;;;;5065578;28;20650;-72
2023/07/13 10:18:55;;;;;;;7.95;1.25;;;21.00;99.90;;;;;;5066658;28;20040;-73
2023/07/13 10:21:23;;;;;;;5.13;1.05;;;21.00;99.90;;;;;;5054682;28;20059;-73
2023/07/13 10:23:55;;;;;;;6.18;1.42;;;21.00;99.90;;;;;;5079529;28;20196;-73
2023/07/13 10:26:30;;;;;;;6.03;1.10;;;21.00;99.90;;;;;;5083853;28;20145;-72
2023/07/13 10:29:00;;;;;;;4.65;1.10;;;20.90;99.90;;;;;;5080459;28;20571;-74
2023/07/13 10:31:26;;;;;;;4.80;1.00;;;21.00;99.90;;;;;;5065163;28;20048;-71
2023/07/13 10:33:52;;;;;;;6.25;1.00;;;21.10;99.90;;;;;;5067018;28;20048;-73
2023/07/13 10:36:48;;;;;;;5.65;1.23;;;21.20;99.90;;;;;;5057388;28;20036;-71
2023/07/13 10:39:20;;;;;;;4.78;1.13;;;21.30;99.90;;;;;;5054134;28;20035;-71
2023/07/13 10:41:53;;;;;;;5.00;0.90;;;21.30;99.90;;;;;;5053437;28;20053;-71
2023/07/13 10:44:30;;;;;;;4.05;0.93;;;21.20;99.90;;;;;;5076558;28;20442;-71
2023/07/13 10:47:08;;;;;;;5.28;1.00;;;21.10;99.90;;;;;;5080064;28;20048;-72
2023/07/13 10:49:36;;;;;;;3.95;1.00;;;21.20;99.90;;;;;;5056450;28;20606;-72
2023/07/13 10:52:03;;;;;;;4.20;1.17;;;21.10;99.90;;;;;;5078903;28;20047;-72
2023/07/13 10:54:29;;;;;;;4.15;1.00;;;21.10;99.90;;;;;;5070342;28;20047;-72
2023/07/13 10:57:15;;;;;;;6.90;1.33;;;21.20;99.90;;;;;;5070114;28;20044;-72
2023/07/13 10:59:41;;;;;;;4.63;1.20;;;21.20;99.90;;;;;;5074602;28;20133;-72
2023/07/13 11:02:22;;;;;;;5.05;1.10;;;21.20;99.90;;;;;;5055448;28;20056;-72
2023/07/13 11:04:49;;;;;;;4.53;1.10;;;21.20;99.90;;;;;;5072259;28;20155;-72
2023/07/13 11:07:25;;;;;;;4.50;1.13;;;21.20;99.90;;;;;;5078320;28;20039;-73
2023/07/13 11:10:00;;;;;;;7.97;1.23;;;21.20;99.90;;;;;;5082495;28;20048;-72
2023/07/13 11:12:48;;;;;;;5.68;1.40;;;21.30;99.90;;;;;;5081277;28;20070;-74
2023/07/13 11:15:14;;;;;;;6.13;1.40;;;21.30;99.90;;;;;;5058707;28;20524;-70
2023/07/13 11:18:03;;;;;;;6.00;1.38;;;21.30;99.90;;;;;;5074340;28;20154;-72
2023/07/13 11:20:33;;;;;;;5.90;1.70;;;21.40;99.90;;;;;;5074404;28;20440;-73
2023/07/13 11:23:16;;;;;;;5.97;1.38;;;21.50;99.90;;;;;;5071241;28;20123;-72
2023/07/13 11:25:42;;;;;;;6.05;1.45;;;21.60;99.90;;;;;;5076478;28;20048;-73
2023/07/13 11:28:11;;;;;;;6.95;1.23;;;21.70;99.90;;;;;;5060720;28;20829;-73
2023/07/13 11:30:57;;;;;;;4.35;1.42;;;21.80;99.90;;;;;;5072826;28;20037;-73
2023/07/13 11:33:39;;;;;;;5.05;1.20;;;21.90;99.90;;;;;;5075518;28;20055;-72
2023/07/13 11:36:19;;;;;;;5.72;1.38;;;21.90;99.90;;;;;;5080571;28;20648;-71
2023/07/13 11:39:17;;;;;;;7.82;1.38;;;22.00;99.90;;;;;;5074941;28;20141;-72
2023/07/13 11:41:50;;;;;;;5.72;1.90;;;22.10;99.90;;;;;;5073673;28;20044;-72
2023/07/13 11:44:19;;;;;;;4.47;1.30;;;22.10;99.90;;;;;;5073115;28;20044;-72
2023/07/13 11:46:51;;;;;;;4.75;1.42;;;22.10;99.90;;;;;;5071029;28;20048;-72
2023/07/13 11:49:22;;;;;;;5.38;1.20;;;22.20;99.90;;;;;;5063540;28;20079;-73
2023/07/13 11:51:53;;;;;;;6.15;1.55;;;22.30;99.90;;;;;;5064799;28;20044;-74
2023/07/13 11:54:27;;;;;;;4.40;1.30;;;22.30;99.90;;;;;;5048692;28;20051;-73
2023/07/13 11:56:58;;;;;;;7.00;1.55;;;22.30;99.90;;;;;;5067611;28;20040;-73
2023/07/13 11:59:24;;;;;;;5.88;1.35;;;22.40;99.90;;;;;;5065556;28;21349;-73
2023/07/13 12:01:54;;;;;;;6.35;2.05;;;22.40;99.90;;;;;;5067535;28;20055;-74
2023/07/13 12:04:34;;;;;;;6.28;1.50;;;22.40;99.90;;;;;;5078748;28;20119;-73
2023/07/13 12:07:17;;;;;;;6.00;1.30;;;22.40;99.90;;;;;;5070370;28;20056;-72
2023/07/13 12:09:43;;;;;;;5.03;1.20;;;22.50;99.90;;;;;;5070825;28;20043;-73
2023/07/13 12:12:16;;;;;;;5.72;1.20;;;22.60;99.90;;;;;;5065996;28;20043;-73
2023/07/13 12:14:42;;;;;;;6.32;1.27;;;22.50;99.90;;;;;;5050870;28;20125;-73
2023/07/13 12:17:21;;;;;;;5.90;1.50;;;22.60;99.90;;;;;;5073707;28;20783;-72
2023/07/13 12:19:52;;;;;;;5.90;1.27;;;22.60;99.90;;;;;;5068838;28;20073;-72
2023/07/13 12:22:20;;;;;;;4.38;1.20;;;22.70;99.90;;;;;;5068061;28;20090;-72
2023/07/13 12:24:48;;;;;;;4.22;1.38;;;22.70;99.90;;;;;;5068353;28;20101;-72
2023/07/13 12:27:22;;;;;;;12.32;1.83;;;22.70;99.90;;;;;;5069682;28;20097;-72
2023/07/13 12:30:06;;;;;;;4.82;1.65;;;22.80;99.90;;;;;;5071367;28;20047;-73
2023/07/13 12:32:32;;;;;;;6.55;1.50;;;22.80;99.90;;;;;;5054292;28;20052;-72
2023/07/13 12:35:15;;;;;;;5.07;1.27;;;22.80;99.90;;;;;;5073809;28;20040;-72
2023/07/13 12:37:46;;;;;;;4.80;1.38;;;22.80;99.90;;;;;;5075457;28;21862;-73
2023/07/13 12:40:16;;;;;;;;;;;22.70;99.90;;;;;;5071399;28;20036;-73
2023/07/13 12:42:45;;;;;;;5.07;1.30;;;22.70;99.90;;;;;;5073256;28;19938;-71
2023/07/13 12:45:27;;;;;;;5.07;1.42;;;22.70;99.90;;;;;;5070139;28;20123;-73
2023/07/13 12:47:58;;;;;;;9.98;1.67;;;22.70;99.90;;;;;;5069338;28;20127;-72
2023/07/13 12:50:41;;;;;;;4.68;1.20;;;22.70;99.90;;;;;;5072100;28;20048;-72
2023/07/13 12:53:14;;;;;;;5.32;1.35;;;22.60;99.90;;;;;;5075505;28;20112;-72